Time;durP1;ratioP1;P1;durP2;ratioP2;P2;SDS_P1;SDS_P2;PMS_P1;PMS_P2;Temp;Humidity;BMP_temperature;BMP_pressure;BME280_temperature;BME280_humidity;BME280_pressure;Samples;Min_cycle;Max_cycle;Signal;HPM_P1;HPM_P2
2021/08/19 00:01:17;;;;;;;0.10;0.10;;;20.80;59.70;;;;;;5068588;28;20222;-67
2021/08/19 00:03:45;;;;;;;0.00;0.00;;;20.70;59.70;;;;;;5064296;28;20249;-67
2021/08/19 00:06:12;;;;;;;0.10;0.10;;;20.70;59.70;;;;;;5062191;28;20230;-67
2021/08/19 00:08:41;;;;;;;0.10;0.10;;;20.70;59.80;;;;;;5061934;28;20602;-67
2021/08/19 00:11:10;;;;;;;0.00;0.00;;;20.70;60.40;;;;;;5065278;28;20636;-67
2021/08/19 00:13:37;;;;;;;0.00;0.00;;;20.70;59.70;;;;;;5061516;28;20631;-67
2021/08/19 00:16:07;;;;;;;0.00;0.00;;;20.60;59.90;;;;;;5063722;28;20265;-67
2021/08/19 00:18:38;;;;;;;0.10;0.10;;;20.60;60.20;;;;;;5062190;28;20224;-67
2021/08/19 00:21:06;;;;;;;0.00;0.00;;;20.50;60.20;;;;;;5060123;28;20545;-67
2021/08/19 00:23:35;;;;;;;0.07;0.07;;;20.40;60.40;;;;;;5061685;28;20210;-67
2021/08/19 00:26:04;;;;;;;0.10;0.10;;;20.40;60.90;;;;;;5061801;28;20352;-67
2021/08/19 00:28:32;;;;;;;0.10;0.10;;;20.40;61.30;;;;;;5064018;28;20220;-67
2021/08/19 00:31:00;;;;;;;0.10;0.10;;;20.40;61.80;;;;;;5069706;28;20217;-67
2021/08/19 00:33:27;;;;;;;0.10;0.10;;;20.20;61.90;;;;;;5064647;28;20242;-67
2021/08/19 00:35:54;;;;;;;0.00;0.00;;;20.10;61.80;;;;;;5063565;28;20221;-68
2021/08/19 00:38:24;;;;;;;0.10;0.10;;;20.10;61.90;;;;;;5062672;28;20218;-67
2021/08/19 00:40:52;;;;;;;0.00;0.00;;;20.00;62.10;;;;;;5064889;28;20217;-67
2021/08/19 00:43:20;;;;;;;0.57;0.57;;;20.00;62.60;;;;;;5060359;28;20217;-67
2021/08/19 00:45:47;;;;;;;0.00;0.00;;;20.00;62.70;;;;;;5065073;28;20267;-67
2021/08/19 00:48:14;;;;;;;0.10;0.10;;;20.00;62.80;;;;;;5064279;28;20271;-67
2021/08/19 00:50:42;;;;;;;0.00;0.00;;;20.00;62.70;;;;;;5063239;28;20217;-67
2021/08/19 00:53:09;;;;;;;0.00;0.00;;;20.00;63.30;;;;;;5070861;28;20217;-67
2021/08/19 00:55:36;;;;;;;0.10;0.10;;;20.10;62.80;;;;;;5069982;28;20537;-67
2021/08/19 00:58:03;;;;;;;0.00;0.00;;;20.10;62.80;;;;;;5061965;28;20218;-67
2021/08/19 01:00:31;;;;;;;0.00;0.00;;;20.10;63.10;;;;;;5060746;28;20248;-67
2021/08/19 01:02:59;;;;;;;0.10;0.10;;;20.10;63.20;;;;;;5064811;28;20241;-67
2021/08/19 01:05:40;;;;;;;0.20;0.20;;;20.10;63.30;;;;;;5061421;28;20226;-67
2021/08/19 01:08:09;;;;;;;0.00;0.00;;;20.10;63.60;;;;;;5061579;28;20560;-67
2021/08/19 01:10:36;;;;;;;0.00;0.00;;;20.00;63.60;;;;;;5063813;28;20218;-67
2021/08/19 01:13:05;;;;;;;0.60;0.60;;;20.00;64.00;;;;;;5068493;28;20206;-67
2021/08/19 01:15:32;;;;;;;0.00;0.00;;;19.90;64.00;;;;;;5061518;28;20214;-67
2021/08/19 01:18:00;;;;;;;0.10;0.10;;;19.80;64.00;;;;;;5063149;28;20232;-67
2021/08/19 01:20:29;;;;;;;0.10;0.10;;;19.80;64.20;;;;;;5062804;28;20704;-67
2021/08/19 01:22:58;;;;;;;0.10;0.10;;;19.80;64.40;;;;;;5062705;28;20252;-67
2021/08/19 01:25:25;;;;;;;0.00;0.00;;;19.80;64.50;;;;;;5060366;28;20210;-67
2021/08/19 01:27:54;;;;;;;0.10;0.10;;;19.80;64.70;;;;;;5061849;28;20238;-67
2021/08/19 01:30:22;;;;;;;0.00;0.00;;;19.80;64.70;;;;;;5062675;28;20218;-67
2021/08/19 01:32:50;;;;;;;0.00;0.00;;;19.80;64.80;;;;;;5060471;28;20234;-66
2021/08/19 01:35:22;;;;;;;0.10;0.10;;;19.80;64.60;;;;;;5060990;28;20210;-66
2021/08/19 01:37:49;;;;;;;0.00;0.00;;;19.80;64.00;;;;;;5066347;28;20214;-66
2021/08/19 01:40:16;;;;;;;0.00;0.00;;;19.70;63.60;;;;;;5065943;28;20229;-66
2021/08/19 01:42:44;;;;;;;0.00;0.00;;;19.70;64.70;;;;;;5064444;28;20222;-66
2021/08/19 01:45:15;;;;;;;0.10;0.10;;;19.70;64.50;;;;;;5066919;28;20220;-66
2021/08/19 01:47:44;;;;;;;0.00;0.00;;;19.60;64.50;;;;;;5066017;28;20711;-66
2021/08/19 01:50:11;;;;;;;0.97;0.97;;;19.70;64.50;;;;;;5063680;28;20211;-66
2021/08/19 01:52:40;;;;;;;0.00;0.00;;;19.70;64.30;;;;;;5065578;28;20209;-66
2021/08/19 01:55:07;;;;;;;0.20;0.20;;;19.70;64.20;;;;;;5066761;28;20210;-66
2021/08/19 01:57:34;;;;;;;2.10;0.67;;;19.70;64.20;;;;;;5063790;28;20218;-66
2021/08/19 02:00:05;;;;;;;0.00;0.00;;;19.70;64.20;;;;;;5065210;28;20214;-66
2021/08/19 02:02:32;;;;;;;0.10;0.10;;;19.70;64.40;;;;;;5066342;28;20209;-66
2021/08/19 02:04:59;;;;;;;0.10;0.10;;;19.60;64.70;;;;;;5064260;28;20640;-66
2021/08/19 02:07:26;;;;;;;0.00;0.00;;;19.60;65.10;;;;;;5064470;28;20238;-66
2021/08/19 02:09:53;;;;;;;0.30;0.30;;;19.50;65.40;;;;;;5066985;28;20214;-66
2021/08/19 02:12:20;;;;;;;0.00;0.00;;;19.50;65.70;;;;;;5065518;28;20213;-66
2021/08/19 02:14:47;;;;;;;0.10;0.10;;;19.50;65.80;;;;;;5073671;28;20697;-66
2021/08/19 02:17:14;;;;;;;0.00;0.00;;;19.40;65.80;;;;;;5063200;28;20655;-66
2021/08/19 02:19:41;;;;;;;0.00;0.00;;;19.40;66.10;;;;;;5066326;28;20221;-66
2021/08/19 02:22:08;;;;;;;0.10;0.10;;;19.40;66.40;;;;;;5062430;28;20225;-66
2021/08/19 02:24:35;;;;;;;0.00;0.00;;;19.30;66.40;;;;;;5068271;28;20202;-66
2021/08/19 02:27:02;;;;;;;0.10;0.10;;;19.20;66.70;;;;;;5066464;28;20533;-66
2021/08/19 02:29:29;;;;;;;0.10;0.10;;;19.10;66.90;;;;;;5066212;28;20218;-66
2021/08/19 02:31:56;;;;;;;0.00;0.00;;;19.10;67.10;;;;;;5065903;28;20249;-66
2021/08/19 02:34:22;;;;;;;0.00;0.00;;;19.10;67.10;;;;;;5065414;28;20224;-66
2021/08/19 02:36:49;;;;;;;0.10;0.10;;;19.10;67.10;;;;;;5065419;28;20214;-66
2021/08/19 02:39:17;;;;;;;0.00;0.00;;;19.20;67.60;;;;;;5062974;28;20218;-66
2021/08/19 02:41:43;;;;;;;0.00;0.00;;;19.10;67.60;;;;;;5065974;28;20249;-66
2021/08/19 02:44:10;;;;;;;0.10;0.10;;;19.10;67.60;;;;;;5063668;28;20215;-66
2021/08/19 02:46:37;;;;;;;0.10;0.10;;;19.10;67.80;;;;;;5065623;28;20234;-66
2021/08/19 02:49:04;;;;;;;0.20;0.20;;;19.00;67.60;;;;;;5062943;28;20249;-66
2021/08/19 02:51:31;;;;;;;0.40;0.40;;;18.90;67.70;;;;;;5063179;28;20219;-66
2021/08/19 02:53:58;;;;;;;0.10;0.10;;;18.90;67.70;;;;;;5065593;28;20212;-66
2021/08/19 02:56:26;;;;;;;0.00;0.00;;;18.90;67.90;;;;;;5063879;28;20641;-66
2021/08/19 02:58:54;;;;;;;0.10;0.10;;;18.90;67.70;;;;;;5066660;28;20202;-66
2021/08/19 03:01:21;;;;;;;0.00;0.00;;;18.90;67.40;;;;;;5066455;28;20214;-66
2021/08/19 03:03:48;;;;;;;0.00;0.00;;;18.90;67.20;;;;;;5064116;28;20218;-66
2021/08/19 03:06:15;;;;;;;0.30;0.30;;;18.90;67.20;;;;;;5065145;28;20206;-66
2021/08/19 03:08:42;;;;;;;0.00;0.00;;;19.00;67.30;;;;;;5063017;28;20240;-66
2021/08/19 03:11:10;;;;;;;0.10;0.10;;;19.00;67.50;;;;;;5063806;28;20220;-66
2021/08/19 03:13:37;;;;;;;0.00;0.00;;;18.90;67.50;;;;;;5065170;28;20271;-65
2021/08/19 03:16:04;;;;;;;1.43;1.33;;;18.90;67.60;;;;;;5062517;28;20287;-65
2021/08/19 03:18:31;;;;;;;0.10;0.10;;;18.90;67.60;;;;;;5063704;28;20292;-65
2021/08/19 03:20:58;;;;;;;0.20;0.20;;;18.90;67.70;;;;;;5064829;28;20528;-65
2021/08/19 03:23:25;;;;;;;0.10;0.10;;;19.00;67.90;;;;;;5062928;28;20214;-65
2021/08/19 03:25:53;;;;;;;0.00;0.00;;;18.90;67.90;;;;;;5062981;28;20218;-65
2021/08/19 03:28:22;;;;;;;0.00;0.00;;;19.00;67.90;;;;;;5064883;28;20295;-65
2021/08/19 03:30:54;;;;;;;0.10;0.10;;;19.00;68.00;;;;;;5062549;28;20284;-65
2021/08/19 03:33:21;;;;;;;0.00;0.00;;;19.00;68.40;;;;;;5065769;28;20668;-65
2021/08/19 03:35:48;;;;;;;0.20;0.20;;;19.00;68.60;;;;;;5062062;28;20214;-65
2021/08/19 03:38:15;;;;;;;0.10;0.10;;;18.90;68.60;;;;;;5069796;28;20210;-65
2021/08/19 03:40:43;;;;;;;0.10;0.10;;;18.90;68.60;;;;;;5064315;28;20598;-65
2021/08/19 03:43:13;;;;;;;0.00;0.00;;;19.00;68.70;;;;;;5062557;28;20206;-65
2021/08/19 03:45:40;;;;;;;0.00;0.00;;;18.90;68.70;;;;;;5061232;28;20237;-65
2021/08/19 03:48:07;;;;;;;0.10;0.10;;;18.90;68.80;;;;;;5064572;28;20233;-65
2021/08/19 03:50:34;;;;;;;0.00;0.00;;;18.90;68.90;;;;;;5070710;28;20214;-65
2021/08/19 03:53:01;;;;;;;0.00;0.00;;;18.90;69.10;;;;;;5061985;28;20207;-66
2021/08/19 03:55:29;;;;;;;0.10;0.10;;;18.90;69.40;;;;;;5061647;28;20268;-66
2021/08/19 03:57:56;;;;;;;0.10;0.10;;;18.90;69.50;;;;;;5063419;28;20525;-66
2021/08/19 04:00:23;;;;;;;0.20;0.20;;;18.80;69.70;;;;;;5071493;28;20278;-66
2021/08/19 04:02:50;;;;;;;0.10;0.10;;;18.80;69.80;;;;;;5066067;28;20283;-66
2021/08/19 04:05:18;;;;;;;0.10;0.10;;;18.90;69.80;;;;;;5062835;28;20222;-66
2021/08/19 04:07:45;;;;;;;0.00;0.00;;;18.90;69.80;;;;;;5064155;28;20596;-66
2021/08/19 04:10:12;;;;;;;0.00;0.00;;;18.90;70.10;;;;;;5060682;28;20647;-66
2021/08/19 04:12:39;;;;;;;2.00;1.80;;;18.90;70.30;;;;;;5062362;28;20210;-66
2021/08/19 04:15:06;;;;;;;0.00;0.00;;;18.80;70.40;;;;;;5064227;28;20236;-66
2021/08/19 04:17:34;;;;;;;0.10;0.10;;;18.80;70.10;;;;;;5063328;28;20217;-66
2021/08/19 04:20:01;;;;;;;0.20;0.20;;;18.80;69.80;;;;;;5062936;28;20225;-66
2021/08/19 04:22:28;;;;;;;0.10;0.10;;;18.70;69.70;;;;;;5060909;28;20226;-66
2021/08/19 04:24:55;;;;;;;0.30;0.30;;;18.70;69.70;;;;;;5063281;28;20221;-66
2021/08/19 04:27:22;;;;;;;0.00;0.00;;;18.80;69.70;;;;;;5070515;28;20736;-66
2021/08/19 04:29:49;;;;;;;0.53;0.53;;;18.80;69.80;;;;;;5061027;28;20292;-66
2021/08/19 04:32:17;;;;;;;0.10;0.10;;;18.80;69.80;;;;;;5064145;28;20627;-66
2021/08/19 04:34:44;;;;;;;0.00;0.00;;;18.80;69.90;;;;;;5063047;28;20221;-66
2021/08/19 04:37:11;;;;;;;0.43;0.43;;;18.80;70.00;;;;;;5059778;28;20214;-66
2021/08/19 04:39:38;;;;;;;0.07;0.07;;;18.90;70.10;;;;;;5062736;28;20279;-66
2021/08/19 04:42:05;;;;;;;0.00;0.00;;;18.90;70.10;;;;;;5062616;28;20223;-66
2021/08/19 04:44:32;;;;;;;0.10;0.10;;;18.90;69.80;;;;;;5060882;28;20237;-66
2021/08/19 04:46:59;;;;;;;0.30;0.30;;;18.90;69.40;;;;;;5062190;28;20216;-66
2021/08/19 04:49:26;;;;;;;0.00;0.00;;;18.90;69.40;;;;;;5062815;28;20619;-66
2021/08/19 04:51:53;;;;;;;0.10;0.10;;;18.90;69.60;;;;;;5060239;28;20418;-66
2021/08/19 04:54:20;;;;;;;0.00;0.00;;;19.00;69.70;;;;;;5062503;28;20214;-66
2021/08/19 04:56:47;;;;;;;0.20;0.20;;;19.10;70.00;;;;;;5062936;28;20644;-66
2021/08/19 04:59:15;;;;;;;0.00;0.00;;;19.20;69.90;;;;;;5060813;28;20211;-66
2021/08/19 05:01:42;;;;;;;0.00;0.00;;;19.20;69.70;;;;;;5061725;28;20214;-66
2021/08/19 05:04:09;;;;;;;0.10;0.10;;;19.30;69.60;;;;;;5063055;28;20263;-66
2021/08/19 05:06:37;;;;;;;0.00;0.00;;;19.40;69.60;;;;;;5062754;28;20221;-66
2021/08/19 05:09:05;;;;;;;1.60;0.70;;;19.50;69.50;;;;;;5061696;28;20633;-66
2021/08/19 05:11:32;;;;;;;0.10;0.10;;;19.60;69.40;;;;;;5059205;28;20671;-67
2021/08/19 05:14:00;;;;;;;0.00;0.00;;;19.70;69.30;;;;;;5062757;28;20213;-66
2021/08/19 05:16:27;;;;;;;0.07;0.07;;;19.70;68.90;;;;;;5069951;28;20218;-66
2021/08/19 05:18:55;;;;;;;0.10;0.10;;;19.80;68.70;;;;;;5060207;28;20256;-66
2021/08/19 05:21:23;;;;;;;0.23;0.23;;;19.90;68.60;;;;;;5061943;28;20240;-66
2021/08/19 05:23:50;;;;;;;0.20;0.20;;;19.90;68.40;;;;;;5062306;28;20217;-66
2021/08/19 05:26:18;;;;;;;0.00;0.00;;;20.10;68.40;;;;;;5060100;28;20248;-66
2021/08/19 05:28:46;;;;;;;0.37;0.37;;;20.40;68.10;;;;;;5062319;28;20292;-66
2021/08/19 05:31:13;;;;;;;0.00;0.00;;;20.70;67.30;;;;;;5059123;28;20210;-66
2021/08/19 05:33:41;;;;;;;0.10;0.10;;;21.00;66.50;;;;;;5063576;28;20547;-66
2021/08/19 05:36:09;;;;;;;0.00;0.00;;;21.40;65.40;;;;;;5061401;28;20221;-66
2021/08/19 05:38:36;;;;;;;0.00;0.00;;;21.70;64.30;;;;;;5070664;28;20221;-66
2021/08/19 05:41:04;;;;;;;0.83;0.83;;;22.00;63.40;;;;;;5060163;28;20656;-66
2021/08/19 05:43:31;;;;;;;0.10;0.10;;;22.20;62.60;;;;;;5061073;28;20225;-66
2021/08/19 05:45:58;;;;;;;0.10;0.10;;;22.20;62.40;;;;;;5062534;28;20222;-66
2021/08/19 05:48:25;;;;;;;0.00;0.00;;;22.10;62.30;;;;;;5060629;28;20244;-66
2021/08/19 05:50:52;;;;;;;0.00;0.00;;;22.10;62.70;;;;;;5059710;28;20210;-66
2021/08/19 05:53:20;;;;;;;0.00;0.00;;;22.00;62.80;;;;;;5062799;28;20210;-66
2021/08/19 05:55:47;;;;;;;0.00;0.00;;;22.00;63.30;;;;;;5060412;28;20348;-66
2021/08/19 05:58:14;;;;;;;0.10;0.10;;;22.00;63.40;;;;;;5060730;28;20253;-66
2021/08/19 06:00:49;;;;;;;0.23;0.23;;;22.00;63.30;;;;;;5062384;28;20263;-66
2021/08/19 06:03:17;;;;;;;0.10;0.10;;;22.00;63.40;;;;;;5061950;28;20217;-66
2021/08/19 06:05:44;;;;;;;0.10;0.10;;;22.00;63.40;;;;;;5059796;28;20214;-66
2021/08/19 06:08:11;;;;;;;0.00;0.00;;;22.20;63.30;;;;;;5061624;28;20248;-66
2021/08/19 06:10:38;;;;;;;0.00;0.00;;;22.30;62.70;;;;;;5061720;28;20213;-66
2021/08/19 06:13:05;;;;;;;1.53;0.50;;;22.50;62.00;;;;;;5060081;28;20206;-66
2021/08/19 06:15:32;;;;;;;0.00;0.00;;;22.60;61.60;;;;;;5061229;28;20218;-66
2021/08/19 06:18:00;;;;;;;0.10;0.10;;;22.80;61.50;;;;;;5062566;28;20276;-66
2021/08/19 06:20:28;;;;;;;0.20;0.20;;;22.90;61.20;;;;;;5062101;28;20209;-66
2021/08/19 06:22:55;;;;;;;1.27;1.20;;;23.20;60.70;;;;;;5062713;28;20224;-66
2021/08/19 06:25:23;;;;;;;0.10;0.10;;;23.30;60.40;;;;;;5063411;28;20218;-66
2021/08/19 06:27:51;;;;;;;0.10;0.10;;;23.30;59.80;;;;;;5063472;28;20235;-66
2021/08/19 06:30:18;;;;;;;0.00;0.00;;;23.40;59.90;;;;;;5063509;28;20213;-66
2021/08/19 06:32:45;;;;;;;0.00;0.00;;;23.40;59.50;;;;;;5065682;28;20696;-66
2021/08/19 06:35:12;;;;;;;0.10;0.10;;;23.40;59.50;;;;;;5065413;28;20221;-66
2021/08/19 06:37:39;;;;;;;0.10;0.10;;;23.60;59.20;;;;;;5064660;28;20218;-66
2021/08/19 06:40:07;;;;;;;0.10;0.10;;;23.70;59.00;;;;;;5063359;28;20222;-66
2021/08/19 06:42:34;;;;;;;0.00;0.00;;;23.80;58.20;;;;;;5065183;28;20291;-66
2021/08/19 06:45:01;;;;;;;0.00;0.00;;;23.90;58.10;;;;;;5072960;28;20311;-66
2021/08/19 06:47:28;;;;;;;0.30;0.30;;;24.00;57.90;;;;;;5062536;28;20225;-66
2021/08/19 06:49:55;;;;;;;0.00;0.00;;;24.00;57.40;;;;;;5065071;28;20780;-66
2021/08/19 06:52:22;;;;;;;0.00;0.00;;;24.10;57.90;;;;;;5064755;28;20237;-66
2021/08/19 06:54:49;;;;;;;0.00;0.00;;;24.20;57.90;;;;;;5062744;28;20210;-66
2021/08/19 06:57:16;;;;;;;0.10;0.10;;;24.30;57.20;;;;;;5064401;28;20222;-66
2021/08/19 06:59:42;;;;;;;0.00;0.00;;;24.40;57.00;;;;;;5064749;28;20221;-66
2021/08/19 07:02:10;;;;;;;0.00;0.00;;;24.50;56.90;;;;;;5062555;28;20218;-66
2021/08/19 07:04:37;;;;;;;0.00;0.00;;;24.60;56.20;;;;;;5064656;28;20217;-66
2021/08/19 07:07:04;;;;;;;0.07;0.07;;;24.70;56.40;;;;;;5064415;28;20225;-66
2021/08/19 07:09:31;;;;;;;0.00;0.00;;;24.80;56.10;;;;;;5062537;28;20230;-66
2021/08/19 07:11:58;;;;;;;0.00;0.00;;;24.90;56.00;;;;;;5062960;28;20211;-66
2021/08/19 07:14:25;;;;;;;0.00;0.00;;;25.00;55.60;;;;;;5070201;28;20396;-66
2021/08/19 07:16:52;;;;;;;0.00;0.00;;;25.10;55.70;;;;;;5071893;28;20213;-66
2021/08/19 07:19:19;;;;;;;0.00;0.00;;;25.20;55.30;;;;;;5063895;28;20225;-66
2021/08/19 07:21:46;;;;;;;0.00;0.00;;;25.40;54.80;;;;;;5062830;28;20217;-66
2021/08/19 07:24:13;;;;;;;0.00;0.00;;;25.60;54.30;;;;;;5065114;28;20218;-66
2021/08/19 07:26:40;;;;;;;0.07;0.07;;;25.60;54.40;;;;;;5063089;28;20226;-66
2021/08/19 07:29:07;;;;;;;0.00;0.00;;;25.70;54.50;;;;;;5063005;28;20234;-66
2021/08/19 07:31:36;;;;;;;0.00;0.00;;;25.80;54.00;;;;;;5072106;28;20213;-66
2021/08/19 07:34:03;;;;;;;0.10;0.10;;;26.00;53.90;;;;;;5063113;28;20246;-66
2021/08/19 07:36:30;;;;;;;0.33;0.33;;;26.20;53.80;;;;;;5064369;28;20222;-66
2021/08/19 07:39:02;;;;;;;0.10;0.10;;;26.40;53.70;;;;;;5061397;28;20228;-66
2021/08/19 07:41:33;;;;;;;0.10;0.10;;;26.50;53.10;;;;;;5062252;28;20233;-66
2021/08/19 07:44:00;;;;;;;0.00;0.00;;;26.40;53.20;;;;;;5070400;28;20305;-66
2021/08/19 07:46:28;;;;;;;0.10;0.10;;;26.40;53.30;;;;;;5065601;28;20227;-68
2021/08/19 07:48:56;;;;;;;0.00;0.00;;;26.50;53.10;;;;;;5060976;28;20238;-67
2021/08/19 07:51:24;;;;;;;0.30;0.30;;;26.50;53.40;;;;;;5063733;28;20315;-68
2021/08/19 07:53:50;;;;;;;1.47;1.37;;;26.60;53.40;;;;;;5063659;28;20635;-67
2021/08/19 07:56:18;;;;;;;0.00;0.00;;;26.70;53.40;;;;;;5061319;28;20244;-67
2021/08/19 07:58:45;;;;;;;0.10;0.10;;;26.90;53.40;;;;;;5063565;28;20596;-67
2021/08/19 08:01:12;;;;;;;0.00;0.00;;;27.10;53.20;;;;;;5063535;28;20540;-67
2021/08/19 08:03:39;;;;;;;0.00;0.00;;;27.40;52.90;;;;;;5061514;28;20411;-67
2021/08/19 08:06:06;;;;;;;0.40;0.40;;;27.70;52.20;;;;;;5062966;28;20225;-67
2021/08/19 08:08:34;;;;;;;0.07;0.07;;;27.80;51.50;;;;;;5071599;28;20663;-67
2021/08/19 08:11:01;;;;;;;0.00;0.00;;;27.80;51.90;;;;;;5061038;28;20214;-68
2021/08/19 08:13:28;;;;;;;0.00;0.00;;;27.90;51.30;;;;;;5063161;28;20244;-68
2021/08/19 08:15:55;;;;;;;0.00;0.00;;;27.90;52.00;;;;;;5063292;28;20206;-68
2021/08/19 08:18:23;;;;;;;0.10;0.10;;;28.00;51.90;;;;;;5060491;28;20532;-68
2021/08/19 08:20:50;;;;;;;0.00;0.00;;;28.30;51.70;;;;;;5062531;28;20634;-68
2021/08/19 08:23:18;;;;;;;0.00;0.00;;;28.50;51.60;;;;;;5063804;28;20213;-68
2021/08/19 08:25:47;;;;;;;0.03;0.03;;;28.90;51.20;;;;;;5060982;28;20275;-68
2021/08/19 08:28:16;;;;;;;0.10;0.10;;;29.10;50.60;;;;;;5062084;28;20291;-68
2021/08/19 08:30:45;;;;;;;0.00;0.00;;;29.30;50.40;;;;;;5063300;28;20608;-68
2021/08/19 08:33:13;;;;;;;0.00;0.00;;;29.40;50.10;;;;;;5063602;28;20624;-68
2021/08/19 08:35:40;;;;;;;0.00;0.00;;;29.70;50.10;;;;;;5063118;28;20620;-68
2021/08/19 08:38:11;;;;;;;0.00;0.00;;;29.90;49.60;;;;;;5063770;28;20217;-68
2021/08/19 08:40:39;;;;;;;0.00;0.00;;;29.90;48.80;;;;;;5062479;28;20209;-68
2021/08/19 08:43:07;;;;;;;0.10;0.10;;;29.80;48.60;;;;;;5061323;28;20633;-68
2021/08/19 08:45:38;;;;;;;0.00;0.00;;;29.70;48.90;;;;;;5061679;28;20210;-68
2021/08/19 08:48:10;;;;;;;0.27;0.27;;;29.70;48.80;;;;;;5071075;28;20236;-68
2021/08/19 08:50:42;;;;;;;0.00;0.00;;;29.80;48.90;;;;;;5061702;28;20648;-68
2021/08/19 08:53:10;;;;;;;0.00;0.00;;;29.90;49.10;;;;;;5060854;28;20215;-68
2021/08/19 08:55:38;;;;;;;0.10;0.10;;;30.10;48.80;;;;;;5063262;28;20221;-68
2021/08/19 08:58:06;;;;;;;0.10;0.10;;;30.30;48.60;;;;;;5062928;28;20644;-68
2021/08/19 09:00:34;;;;;;;0.00;0.00;;;30.60;48.40;;;;;;5060664;28;20229;-68
2021/08/19 09:03:15;;;;;;;0.00;0.00;;;30.70;47.90;;;;;;5061357;28;20245;-68
2021/08/19 09:05:45;;;;;;;0.40;0.40;;;30.60;47.30;;;;;;5060872;28;20210;-68
2021/08/19 09:08:15;;;;;;;0.00;0.00;;;30.40;47.60;;;;;;5061101;28;20624;-68
2021/08/19 09:10:43;;;;;;;0.00;0.00;;;30.40;48.00;;;;;;5062815;28;20217;-68
2021/08/19 09:13:16;;;;;;;0.30;0.30;;;30.60;48.20;;;;;;5061954;28;20206;-68
2021/08/19 09:15:44;;;;;;;0.00;0.00;;;30.80;47.90;;;;;;5060595;28;20293;-68
2021/08/19 09:18:26;;;;;;;0.23;0.23;;;30.90;47.40;;;;;;5061847;28;20213;-69
2021/08/19 09:20:53;;;;;;;1.27;0.37;;;31.00;47.40;;;;;;5060968;28;20214;-68
2021/08/19 09:23:20;;;;;;;0.00;0.00;;;31.20;47.80;;;;;;5061353;28;20226;-68
2021/08/19 09:25:47;;;;;;;0.00;0.00;;;31.30;47.40;;;;;;5062811;28;20254;-68
2021/08/19 09:28:17;;;;;;;0.00;0.00;;;31.60;46.60;;;;;;5069375;28;20221;-68
2021/08/19 09:30:53;;;;;;;1.40;1.30;;;31.80;45.70;;;;;;5066854;28;20636;-68
2021/08/19 09:33:28;;;;;;;0.20;0.20;;;32.00;44.70;;;;;;5062918;28;20241;-68
2021/08/19 09:36:01;;;;;;;0.00;0.00;;;32.00;43.80;;;;;;5062749;28;20266;-68
2021/08/19 09:38:35;;;;;;;0.00;0.00;;;32.00;44.00;;;;;;5062481;28;20213;-68
2021/08/19 09:41:12;;;;;;;0.50;0.37;;;32.10;43.90;;;;;;5060496;28;20217;-68
2021/08/19 09:43:48;;;;;;;0.10;0.10;;;32.30;44.00;;;;;;5060628;28;20214;-68
2021/08/19 09:46:17;;;;;;;0.00;0.00;;;32.50;43.70;;;;;;5060724;28;20214;-68
2021/08/19 09:48:44;;;;;;;0.10;0.10;;;32.70;42.70;;;;;;5069930;28;20302;-68
2021/08/19 09:51:21;;;;;;;0.00;0.00;;;32.80;42.30;;;;;;5060845;28;20264;-68
2021/08/19 09:53:55;;;;;;;0.20;0.20;;;32.80;42.50;;;;;;5059973;28;20267;-68
2021/08/19 09:56:27;;;;;;;0.00;0.00;;;33.00;42.50;;;;;;5063926;28;20214;-68
2021/08/19 09:58:56;;;;;;;0.00;0.00;;;33.20;42.30;;;;;;5069319;28;20593;-68
2021/08/19 10:01:23;;;;;;;0.00;0.00;;;33.30;41.90;;;;;;5062702;28;20238;-68
2021/08/19 10:03:51;;;;;;;0.00;0.00;;;33.30;41.30;;;;;;5066523;28;20274;-68
2021/08/19 10:06:18;;;;;;;0.10;0.10;;;33.30;41.60;;;;;;5064703;28;20214;-68
2021/08/19 10:08:45;;;;;;;0.00;0.00;;;33.40;41.40;;;;;;5064634;28;20272;-68
2021/08/19 10:11:13;;;;;;;0.00;0.00;;;33.40;41.70;;;;;;5066191;28;20224;-68
2021/08/19 10:13:41;;;;;;;0.10;0.10;;;33.40;40.70;;;;;;5064848;28;20265;-68
2021/08/19 10:16:09;;;;;;;0.00;0.00;;;33.50;38.70;;;;;;5063814;28;20272;-68
2021/08/19 10:18:38;;;;;;;0.10;0.10;;;33.40;39.00;;;;;;5066437;28;20251;-68
2021/08/19 10:21:16;;;;;;;0.00;0.00;;;33.60;39.00;;;;;;5064969;28;20222;-68
2021/08/19 10:24:01;;;;;;;0.10;0.10;;;33.60;37.80;;;;;;5066382;28;20227;-68
2021/08/19 10:26:28;;;;;;;0.00;0.00;;;33.40;38.20;;;;;;5071763;28;20288;-68
2021/08/19 10:28:57;;;;;;;0.10;0.10;;;33.40;38.70;;;;;;5064279;28;20242;-68
2021/08/19 10:31:38;;;;;;;0.00;0.00;;;33.40;38.50;;;;;;5065760;28;20221;-68
2021/08/19 10:34:06;;;;;;;0.00;0.00;;;33.50;38.90;;;;;;5067179;28;20235;-68
2021/08/19 10:36:45;;;;;;;0.00;0.00;;;33.70;37.70;;;;;;5063523;28;20211;-68
2021/08/19 10:39:18;;;;;;;0.10;0.10;;;33.50;36.70;;;;;;5071373;28;20624;-68
2021/08/19 10:41:50;;;;;;;0.10;0.10;;;33.30;37.20;;;;;;5063938;28;20588;-68
2021/08/19 10:44:33;;;;;;;0.00;0.00;;;33.50;37.50;;;;;;5067122;28;20210;-68
2021/08/19 10:47:02;;;;;;;0.53;0.53;;;33.70;36.90;;;;;;5063308;28;20218;-68
2021/08/19 10:49:32;;;;;;;0.00;0.00;;;33.80;36.70;;;;;;5065034;28;20233;-68
2021/08/19 10:52:08;;;;;;;0.00;0.00;;;33.90;35.80;;;;;;5073115;28;20301;-68
2021/08/19 10:54:40;;;;;;;0.10;0.10;;;33.80;35.10;;;;;;5064722;28;20632;-68
2021/08/19 10:57:29;;;;;;;0.00;0.00;;;33.70;35.60;;;;;;5062658;28;20225;-68
2021/08/19 10:59:57;;;;;;;0.10;0.10;;;33.50;36.10;;;;;;5063329;28;20214;-68
2021/08/19 11:02:46;;;;;;;0.00;0.00;;;33.50;36.20;;;;;;5063596;28;20225;-68
2021/08/19 11:05:25;;;;;;;0.00;0.00;;;33.70;36.30;;;;;;5072005;28;20213;-68
2021/08/19 11:07:59;;;;;;;0.00;0.00;;;33.80;35.90;;;;;;5064280;28;20225;-68
2021/08/19 11:10:32;;;;;;;0.00;0.00;;;33.90;35.50;;;;;;5060463;28;20622;-68
2021/08/19 11:13:06;;;;;;;0.10;0.10;;;34.00;34.10;;;;;;5062631;28;20214;-68
2021/08/19 11:15:38;;;;;;;0.00;0.00;;;34.10;34.20;;;;;;5061868;28;20212;-68
2021/08/19 11:18:05;;;;;;;0.10;0.10;;;34.10;34.50;;;;;;5062883;28;20206;-68
2021/08/19 11:20:34;;;;;;;0.00;0.00;;;34.20;35.10;;;;;;5062398;28;20214;-68
2021/08/19 11:23:05;;;;;;;0.00;0.00;;;34.20;34.40;;;;;;5064444;28;20225;-68
2021/08/19 11:25:35;;;;;;;0.00;0.00;;;34.40;33.90;;;;;;5064842;28;20209;-68
2021/08/19 11:28:18;;;;;;;0.40;0.40;;;34.50;34.00;;;;;;5063658;28;20217;-68
2021/08/19 11:30:47;;;;;;;0.00;0.00;;;34.60;32.60;;;;;;5063095;28;20242;-68
2021/08/19 11:33:23;;;;;;;0.00;0.00;;;34.50;31.80;;;;;;5062332;28;20238;-68
2021/08/19 11:35:55;;;;;;;0.00;0.00;;;34.50;31.80;;;;;;5063164;28;20210;-68
2021/08/19 11:38:24;;;;;;;0.10;0.10;;;34.50;30.90;;;;;;5061180;28;20214;-68
2021/08/19 11:40:56;;;;;;;0.00;0.00;;;34.40;30.40;;;;;;5070322;28;20225;-68
2021/08/19 11:43:31;;;;;;;0.00;0.00;;;34.40;30.50;;;;;;5065032;28;20213;-68
2021/08/19 11:46:08;;;;;;;0.00;0.00;;;34.30;30.80;;;;;;5063505;28;20740;-68
2021/08/19 11:48:37;;;;;;;0.10;0.10;;;34.40;31.30;;;;;;5060993;28;20220;-68
2021/08/19 11:51:05;;;;;;;0.10;0.10;;;34.50;31.10;;;;;;5063754;28;20240;-68
2021/08/19 11:53:32;;;;;;;0.00;0.00;;;34.60;30.90;;;;;;5062086;28;20227;-68
2021/08/19 11:56:15;;;;;;;0.10;0.10;;;34.50;30.80;;;;;;5060438;28;20203;-68
2021/08/19 11:58:42;;;;;;;0.30;0.30;;;34.40;31.20;;;;;;5062452;28;20232;-68
2021/08/19 12:01:11;;;;;;;0.00;0.00;;;34.50;31.30;;;;;;5061393;28;20272;-68
2021/08/19 12:03:41;;;;;;;0.00;0.00;;;34.60;31.00;;;;;;5064956;28;20275;-67
2021/08/19 12:06:19;;;;;;;0.00;0.00;;;34.70;31.20;;;;;;5062625;28;20702;-67
2021/08/19 12:08:52;;;;;;;0.00;0.00;;;34.60;31.10;;;;;;5064521;28;20628;-67
2021/08/19 12:11:22;;;;;;;0.00;0.00;;;34.40;31.00;;;;;;5061453;28;20222;-67
2021/08/19 12:14:04;;;;;;;0.00;0.00;;;34.20;29.90;;;;;;5060635;28;20222;-67
2021/08/19 12:16:31;;;;;;;0.00;0.00;;;34.10;30.50;;;;;;5063763;28;20216;-67
2021/08/19 12:19:18;;;;;;;0.00;0.00;;;34.20;30.80;;;;;;5070685;28;20214;-67
2021/08/19 12:21:48;;;;;;;0.00;0.00;;;34.30;31.20;;;;;;5062470;28;20279;-67
2021/08/19 12:24:19;;;;;;;0.30;0.30;;;34.40;31.40;;;;;;5061106;28;20263;-67
2021/08/19 12:27:17;;;;;;;0.00;0.00;;;34.60;31.40;;;;;;5068965;28;20643;-67
2021/08/19 12:29:48;;;;;;;0.10;0.10;;;34.70;31.20;;;;;;5063590;28;20740;-67
2021/08/19 12:32:34;;;;;;;0.60;0.57;;;34.80;31.20;;;;;;5063057;28;20273;-67
2021/08/19 12:35:11;;;;;;;0.00;0.00;;;34.80;30.80;;;;;;5062440;28;20210;-67
2021/08/19 12:37:40;;;;;;;0.00;0.00;;;34.80;31.00;;;;;;5063699;28;20210;-67
2021/08/19 12:40:12;;;;;;;0.00;0.00;;;34.80;30.90;;;;;;5062715;28;20401;-67
2021/08/19 12:42:41;;;;;;;0.00;0.00;;;34.70;29.20;;;;;;5060744;28;20218;-67
2021/08/19 12:45:09;;;;;;;0.00;0.00;;;34.40;29.90;;;;;;5062672;28;20229;-67
2021/08/19 12:47:39;;;;;;;0.00;0.00;;;34.30;30.20;;;;;;5064179;28;20236;-67
2021/08/19 12:50:08;;;;;;;0.00;0.00;;;34.30;30.00;;;;;;5062116;28;20314;-66
2021/08/19 12:52:36;;;;;;;0.00;0.00;;;34.10;29.70;;;;;;5061059;28;20229;-67
2021/08/19 12:55:06;;;;;;;0.10;0.10;;;34.00;30.70;;;;;;5065139;28;20214;-67
2021/08/19 12:57:56;;;;;;;0.00;0.00;;;34.00;30.10;;;;;;5061563;28;20227;-67